sensor_id;sensor_type;location;lat;lon;timestamp;temperature;humidity
26589;DHT22;14235;48.532;8.722;2022-11-20T00:00:04;4.30;99.90
26589;DHT22;14235;48.532;8.722;2022-11-20T00:02:29;4.30;99.90
26589;DHT22;14235;48.532;8.722;2022-11-20T00:04:55;4.30;99.90
26589;DHT22;14235;48.532;8.722;2022-11-20T00:07:21;4.30;99.90
26589;DHT22;14235;48.532;8.722;2022-11-20T00:09:46;4.20;99.90
26589;DHT22;14235;48.532;8.722;2022-11-20T00:12:12;4.30;99.90
26589;DHT22;14235;48.532;8.722;2022-11-20T00:14:37;4.30;99.90
26589;DHT22;14235;48.532;8.722;2022-11-20T00:17:03;4.30;99.90
26589;DHT22;14235;48.532;8.722;2022-11-20T00:19:28;4.30;99.90
26589;DHT22;14235;48.532;8.722;2022-11-20T00:21:54;4.30;99.90
26589;DHT22;14235;48.532;8.722;2022-11-20T00:24:20;4.20;99.90
26589;DHT22;14235;48.532;8.722;2022-11-20T00:26:46;4.10;99.90
26589;DHT22;14235;48.532;8.722;2022-11-20T00:29:11;4.10;99.90
26589;DHT22;14235;48.532;8.722;2022-11-20T00:31:37;4.10;99.90
26589;DHT22;14235;48.532;8.722;2022-11-20T00:34:03;4.00;99.90
26589;DHT22;14235;48.532;8.722;2022-11-20T00:36:32;4.00;99.90
26589;DHT22;14235;48.532;8.722;2022-11-20T00:38:58;4.00;99.90
26589;DHT22;14235;48.532;8.722;2022-11-20T00:41:26;4.00;99.90
26589;DHT22;14235;48.532;8.722;2022-11-20T00:43:52;4.10;99.90
26589;DHT22;14235;48.532;8.722;2022-11-20T00:46:21;4.00;99.90
26589;DHT22;14235;48.532;8.722;2022-11-20T00:48:47;4.00;99.90
26589;DHT22;14235;48.532;8.722;2022-11-20T00:51:18;3.90;99.90
26589;DHT22;14235;48.532;8.722;2022-11-20T00:53:45;3.90;99.90
26589;DHT22;14235;48.532;8.722;2022-11-20T00:56:13;3.90;99.90
26589;DHT22;14235;48.532;8.722;2022-11-20T00:58:41;3.90;99.90
26589;DHT22;14235;48.532;8.722;2022-11-20T01:01:09;3.90;99.90
26589;DHT22;14235;48.532;8.722;2022-11-20T01:03:40;3.90;99.90
26589;DHT22;14235;48.532;8.722;2022-11-20T01:06:11;3.90;99.90
26589;DHT22;14235;48.532;8.722;2022-11-20T01:08:37;3.80;99.90
26589;DHT22;14235;48.532;8.722;2022-11-20T01:11:17;3.80;99.90
26589;DHT22;14235;48.532;8.722;2022-11-20T01:16:21;3.80;99.90
26589;DHT22;14235;48.532;8.722;2022-11-20T01:18:49;3.80;99.90
26589;DHT22;14235;48.532;8.722;2022-11-20T01:21:17;3.80;99.90
26589;DHT22;14235;48.532;8.722;2022-11-20T01:23:44;3.70;99.90
26589;DHT22;14235;48.532;8.722;2022-11-20T01:26:12;3.60;99.90
26589;DHT22;14235;48.532;8.722;2022-11-20T01:28:39;3.40;99.90
26589;DHT22;14235;48.532;8.722;2022-11-20T01:48:40;3.20;99.90
26589;DHT22;14235;48.532;8.722;2022-11-20T01:51:17;3.10;99.90
26589;DHT22;14235;48.532;8.722;2022-11-20T01:53:44;3.10;99.90
26589;DHT22;14235;48.532;8.722;2022-11-20T01:58:41;3.00;99.90
26589;DHT22;14235;48.532;8.722;2022-11-20T02:07:11;3.10;99.90
26589;DHT22;14235;48.532;8.722;2022-11-20T02:09:37;2.60;99.90
26589;DHT22;14235;48.532;8.722;2022-11-20T02:12:03;3.00;99.90
26589;DHT22;14235;48.532;8.722;2022-11-20T02:19:26;2.80;99.90
26589;DHT22;14235;48.532;8.722;2022-11-20T02:32:00;2.80;99.90
26589;DHT22;14235;48.532;8.722;2022-11-20T02:34:28;2.90;99.90
26589;DHT22;14235;48.532;8.722;2022-11-20T02:36:54;2.90;99.90
26589;DHT22;14235;48.532;8.722;2022-11-20T02:39:23;3.00;99.90
26589;DHT22;14235;48.532;8.722;2022-11-20T02:44:18;2.70;99.90
26589;DHT22;14235;48.532;8.722;2022-11-20T02:46:44;2.80;99.90
26589;DHT22;14235;48.532;8.722;2022-11-20T02:49:09;2.80;99.90
26589;DHT22;14235;48.532;8.722;2022-11-20T02:51:35;3.50;99.90
26589;DHT22;14235;48.532;8.722;2022-11-20T02:54:00;2.40;99.90
26589;DHT22;14235;48.532;8.722;2022-11-20T02:56:27;2.90;99.90
26589;DHT22;14235;48.532;8.722;2022-11-20T02:58:52;2.70;99.90
26589;DHT22;14235;48.532;8.722;2022-11-20T03:01:18;2.70;99.90
26589;DHT22;14235;48.532;8.722;2022-11-20T03:03:44;2.70;99.90
26589;DHT22;14235;48.532;8.722;2022-11-20T03:06:09;2.80;99.90
26589;DHT22;14235;48.532;8.722;2022-11-20T03:08:35;2.80;99.90
26589;DHT22;14235;48.532;8.722;2022-11-20T03:11:06;2.90;99.90
26589;DHT22;14235;48.532;8.722;2022-11-20T03:13:32;2.60;99.90
26589;DHT22;14235;48.532;8.722;2022-11-20T03:16:04;2.60;99.90
26589;DHT22;14235;48.532;8.722;2022-11-20T03:18:29;2.80;99.90
26589;DHT22;14235;48.532;8.722;2022-11-20T03:20:58;2.70;99.90
26589;DHT22;14235;48.532;8.722;2022-11-20T03:23:24;2.70;99.90
26589;DHT22;14235;48.532;8.722;2022-11-20T03:25:50;2.90;99.90
26589;DHT22;14235;48.532;8.722;2022-11-20T03:28:16;2.90;99.90
26589;DHT22;14235;48.532;8.722;2022-11-20T03:30:41;3.00;99.90
26589;DHT22;14235;48.532;8.722;2022-11-20T03:33:07;2.80;99.90
26589;DHT22;14235;48.532;8.722;2022-11-20T03:35:32;2.90;99.90
26589;DHT22;14235;48.532;8.722;2022-11-20T03:37:58;2.90;99.90
26589;DHT22;14235;48.532;8.722;2022-11-20T03:40:23;3.00;99.90
26589;DHT22;14235;48.532;8.722;2022-11-20T03:42:49;3.00;99.90
26589;DHT22;14235;48.532;8.722;2022-11-20T03:45:17;3.00;99.90
26589;DHT22;14235;48.532;8.722;2022-11-20T03:47:43;3.10;99.90
26589;DHT22;14235;48.532;8.722;2022-11-20T03:50:11;3.10;99.90
26589;DHT22;14235;48.532;8.722;2022-11-20T03:52:38;3.00;99.90
26589;DHT22;14235;48.532;8.722;2022-11-20T03:55:05;2.80;99.90
26589;DHT22;14235;48.532;8.722;2022-11-20T03:57:31;2.80;99.90
26589;DHT22;14235;48.532;8.722;2022-11-20T03:59:56;2.80;99.90
26589;DHT22;14235;48.532;8.722;2022-11-20T04:02:22;2.80;99.90
26589;DHT22;14235;48.532;8.722;2022-11-20T04:04:48;2.90;99.90
26589;DHT22;14235;48.532;8.722;2022-11-20T04:07:13;2.90;99.90
26589;DHT22;14235;48.532;8.722;2022-11-20T04:09:39;2.90;99.90
26589;DHT22;14235;48.532;8.722;2022-11-20T04:12:04;3.00;99.90
26589;DHT22;14235;48.532;8.722;2022-11-20T04:14:30;3.10;99.90
26589;DHT22;14235;48.532;8.722;2022-11-20T04:16:55;3.00;99.90
26589;DHT22;14235;48.532;8.722;2022-11-20T04:19:21;2.90;99.90
26589;DHT22;14235;48.532;8.722;2022-11-20T04:21:47;3.00;99.90
26589;DHT22;14235;48.532;8.722;2022-11-20T04:24:14;3.10;99.90
26589;DHT22;14235;48.532;8.722;2022-11-20T04:26:40;3.10;99.90
26589;DHT22;14235;48.532;8.722;2022-11-20T04:36:27;2.60;99.90
26589;DHT22;14235;48.532;8.722;2022-11-20T04:46:14;2.60;99.90
26589;DHT22;14235;48.532;8.722;2022-11-20T04:48:39;2.50;99.90
26589;DHT22;14235;48.532;8.722;2022-11-20T04:51:05;3.10;99.90
26589;DHT22;14235;48.532;8.722;2022-11-20T04:53:31;2.60;99.90
26589;DHT22;14235;48.532;8.722;2022-11-20T04:56:01;2.70;99.90
26589;DHT22;14235;48.532;8.722;2022-11-20T04:58:27;2.90;99.90
26589;DHT22;14235;48.532;8.722;2022-11-20T05:00:53;2.90;99.90
26589;DHT22;14235;48.532;8.722;2022-11-20T05:03:19;3.10;99.90
26589;DHT22;14235;48.532;8.722;2022-11-20T05:05:44;3.00;99.90
26589;DHT22;14235;48.532;8.722;2022-11-20T05:08:10;3.00;99.90
26589;DHT22;14235;48.532;8.722;2022-11-20T05:10:35;2.90;99.90
26589;DHT22;14235;48.532;8.722;2022-11-20T05:13:01;2.90;99.90
26589;DHT22;14235;48.532;8.722;2022-11-20T05:15:26;2.90;99.90
26589;DHT22;14235;48.532;8.722;2022-11-20T05:17:52;2.80;99.90
26589;DHT22;14235;48.532;8.722;2022-11-20T05:20:18;2.90;99.90
26589;DHT22;14235;48.532;8.722;2022-11-20T05:22:44;2.90;99.90
26589;DHT22;14235;48.532;8.722;2022-11-20T05:25:10;3.20;99.90
26589;DHT22;14235;48.532;8.722;2022-11-20T05:27:36;3.00;99.90
26589;DHT22;14235;48.532;8.722;2022-11-20T05:30:03;3.00;99.90
26589;DHT22;14235;48.532;8.722;2022-11-20T05:32:29;3.00;99.90
26589;DHT22;14235;48.532;8.722;2022-11-20T05:34:54;3.00;99.90
26589;DHT22;14235;48.532;8.722;2022-11-20T05:37:20;2.90;99.90
26589;DHT22;14235;48.532;8.722;2022-11-20T05:39:45;3.00;99.90
26589;DHT22;14235;48.532;8.722;2022-11-20T05:42:11;2.90;99.90
26589;DHT22;14235;48.532;8.722;2022-11-20T05:44:56;2.90;99.90
26589;DHT22;14235;48.532;8.722;2022-11-20T05:47:22;2.80;99.90
26589;DHT22;14235;48.532;8.722;2022-11-20T05:49:47;2.80;99.90
26589;DHT22;14235;48.532;8.722;2022-11-20T05:52:13;2.90;99.90
26589;DHT22;14235;48.532;8.722;2022-11-20T05:54:38;2.90;99.90
26589;DHT22;14235;48.532;8.722;2022-11-20T05:57:04;3.00;99.90
26589;DHT22;14235;48.532;8.722;2022-11-20T05:59:30;3.00;99.90
26589;DHT22;14235;48.532;8.722;2022-11-20T06:01:55;3.10;99.90
26589;DHT22;14235;48.532;8.722;2022-11-20T06:04:21;3.10;99.90
26589;DHT22;14235;48.532;8.722;2022-11-20T06:06:46;3.10;99.90
26589;DHT22;14235;48.532;8.722;2022-11-20T06:09:12;3.20;99.90
26589;DHT22;14235;48.532;8.722;2022-11-20T06:11:38;3.20;99.90
26589;DHT22;14235;48.532;8.722;2022-11-20T06:14:03;3.10;99.90
26589;DHT22;14235;48.532;8.722;2022-11-20T06:16:29;3.60;99.90
26589;DHT22;14235;48.532;8.722;2022-11-20T06:18:54;3.00;99.90
26589;DHT22;14235;48.532;8.722;2022-11-20T06:21:21;3.10;99.90
26589;DHT22;14235;48.532;8.722;2022-11-20T06:23:48;3.10;99.90
26589;DHT22;14235;48.532;8.722;2022-11-20T06:26:22;3.10;99.90
26589;DHT22;14235;48.532;8.722;2022-11-20T06:28:48;3.10;99.90
26589;DHT22;14235;48.532;8.722;2022-11-20T06:31:16;3.10;99.90
26589;DHT22;14235;48.532;8.722;2022-11-20T06:33:43;3.00;99.90
26589;DHT22;14235;48.532;8.722;2022-11-20T06:36:11;3.10;99.90
26589;DHT22;14235;48.532;8.722;2022-11-20T06:38:38;3.10;99.90
26589;DHT22;14235;48.532;8.722;2022-11-20T06:41:10;3.20;99.90
26589;DHT22;14235;48.532;8.722;2022-11-20T06:43:36;3.20;99.90
26589;DHT22;14235;48.532;8.722;2022-11-20T06:46:02;3.20;99.90
26589;DHT22;14235;48.532;8.722;2022-11-20T06:48:28;3.20;99.90
26589;DHT22;14235;48.532;8.722;2022-11-20T06:50:55;3.30;99.90
26589;DHT22;14235;48.532;8.722;2022-11-20T06:53:22;3.30;99.90
26589;DHT22;14235;48.532;8.722;2022-11-20T06:55:50;3.30;99.90
26589;DHT22;14235;48.532;8.722;2022-11-20T06:58:16;3.50;99.90
26589;DHT22;14235;48.532;8.722;2022-11-20T07:00:42;3.20;99.90
26589;DHT22;14235;48.532;8.722;2022-11-20T07:03:09;3.40;99.90
26589;DHT22;14235;48.532;8.722;2022-11-20T07:05:35;3.30;99.90
26589;DHT22;14235;48.532;8.722;2022-11-20T07:08:02;3.30;99.90
26589;DHT22;14235;48.532;8.722;2022-11-20T07:10:28;3.30;99.90
26589;DHT22;14235;48.532;8.722;2022-11-20T07:12:54;3.30;99.90
26589;DHT22;14235;48.532;8.722;2022-11-20T07:15:22;3.40;99.90
26589;DHT22;14235;48.532;8.722;2022-11-20T07:17:48;3.40;99.90
26589;DHT22;14235;48.532;8.722;2022-11-20T07:20:14;3.40;99.90
26589;DHT22;14235;48.532;8.722;2022-11-20T07:22:40;3.60;99.90
26589;DHT22;14235;48.532;8.722;2022-11-20T07:25:07;3.90;99.90
26589;DHT22;14235;48.532;8.722;2022-11-20T07:27:33;3.60;99.90
26589;DHT22;14235;48.532;8.722;2022-11-20T07:29:58;3.60;99.90
26589;DHT22;14235;48.532;8.722;2022-11-20T07:32:24;3.50;99.90
26589;DHT22;14235;48.532;8.722;2022-11-20T07:34:50;3.60;99.90
26589;DHT22;14235;48.532;8.722;2022-11-20T07:37:16;3.50;99.90
26589;DHT22;14235;48.532;8.722;2022-11-20T07:39:42;3.60;99.90
26589;DHT22;14235;48.532;8.722;2022-11-20T07:42:08;3.60;99.90
26589;DHT22;14235;48.532;8.722;2022-11-20T07:44:34;3.50;99.90
26589;DHT22;14235;48.532;8.722;2022-11-20T07:46:59;3.60;99.90
26589;DHT22;14235;48.532;8.722;2022-11-20T07:49:25;3.60;99.90
26589;DHT22;14235;48.532;8.722;2022-11-20T07:51:51;3.60;99.90
26589;DHT22;14235;48.532;8.722;2022-11-20T07:54:18;3.70;99.90
26589;DHT22;14235;48.532;8.722;2022-11-20T07:56:44;3.60;99.90
26589;DHT22;14235;48.532;8.722;2022-11-20T07:59:09;3.60;99.90
26589;DHT22;14235;48.532;8.722;2022-11-20T08:01:37;3.70;99.90
26589;DHT22;14235;48.532;8.722;2022-11-20T08:04:03;3.70;99.90
26589;DHT22;14235;48.532;8.722;2022-11-20T08:06:29;3.70;99.90
26589;DHT22;14235;48.532;8.722;2022-11-20T08:08:54;3.70;99.90
26589;DHT22;14235;48.532;8.722;2022-11-20T08:11:20;3.70;99.90
26589;DHT22;14235;48.532;8.722;2022-11-20T08:14:04;3.80;99.90
26589;DHT22;14235;48.532;8.722;2022-11-20T08:16:44;3.90;99.90
26589;DHT22;14235;48.532;8.722;2022-11-20T08:19:10;4.00;99.90
26589;DHT22;14235;48.532;8.722;2022-11-20T08:21:36;4.10;99.90
26589;DHT22;14235;48.532;8.722;2022-11-20T08:24:01;4.90;99.90
26589;DHT22;14235;48.532;8.722;2022-11-20T08:26:27;4.20;99.90
26589;DHT22;14235;48.532;8.722;2022-11-20T08:28:54;4.20;99.90
26589;DHT22;14235;48.532;8.722;2022-11-20T08:31:20;4.70;99.90
26589;DHT22;14235;48.532;8.722;2022-11-20T08:33:46;4.60;99.90
26589;DHT22;14235;48.532;8.722;2022-11-20T08:36:12;4.30;99.90
26589;DHT22;14235;48.532;8.722;2022-11-20T08:38:38;4.50;99.90
26589;DHT22;14235;48.532;8.722;2022-11-20T08:41:04;4.50;99.90
26589;DHT22;14235;48.532;8.722;2022-11-20T08:44:00;4.50;99.90
26589;DHT22;14235;48.532;8.722;2022-11-20T08:46:32;4.80;99.90
26589;DHT22;14235;48.532;8.722;2022-11-20T08:49:02;4.70;99.90
26589;DHT22;14235;48.532;8.722;2022-11-20T08:51:28;4.90;99.90
26589;DHT22;14235;48.532;8.722;2022-11-20T08:53:53;5.00;99.90
26589;DHT22;14235;48.532;8.722;2022-11-20T08:56:19;4.90;99.90
26589;DHT22;14235;48.532;8.722;2022-11-20T08:58:45;5.80;99.90
26589;DHT22;14235;48.532;8.722;2022-11-20T09:01:10;6.50;99.90
26589;DHT22;14235;48.532;8.722;2022-11-20T09:03:36;4.90;99.90
26589;DHT22;14235;48.532;8.722;2022-11-20T09:06:05;5.10;99.90
26589;DHT22;14235;48.532;8.722;2022-11-20T09:08:32;5.30;99.90
26589;DHT22;14235;48.532;8.722;2022-11-20T09:10:58;5.10;99.90
26589;DHT22;14235;48.532;8.722;2022-11-20T09:13:27;5.10;99.90
26589;DHT22;14235;48.532;8.722;2022-11-20T09:15:54;5.20;99.90
26589;DHT22;14235;48.532;8.722;2022-11-20T09:18:20;5.20;99.90
26589;DHT22;14235;48.532;8.722;2022-11-20T09:20:46;5.40;99.90
26589;DHT22;14235;48.532;8.722;2022-11-20T09:23:11;5.40;99.90
26589;DHT22;14235;48.532;8.722;2022-11-20T09:25:37;5.30;99.90
26589;DHT22;14235;48.532;8.722;2022-11-20T09:28:02;5.40;99.90
26589;DHT22;14235;48.532;8.722;2022-11-20T09:30:28;5.50;99.90
26589;DHT22;14235;48.532;8.722;2022-11-20T09:32:54;5.40;99.90
26589;DHT22;14235;48.532;8.722;2022-11-20T09:35:19;5.40;99.90
26589;DHT22;14235;48.532;8.722;2022-11-20T09:37:45;5.40;99.90
26589;DHT22;14235;48.532;8.722;2022-11-20T09:40:22;5.40;99.90
26589;DHT22;14235;48.532;8.722;2022-11-20T09:42:59;6.40;99.90
26589;DHT22;14235;48.532;8.722;2022-11-20T09:46:08;5.60;99.90
26589;DHT22;14235;48.532;8.722;2022-11-20T09:48:53;5.60;99.90
26589;DHT22;14235;48.532;8.722;2022-11-20T09:51:38;5.60;99.90
26589;DHT22;14235;48.532;8.722;2022-11-20T09:54:19;5.70;99.90
26589;DHT22;14235;48.532;8.722;2022-11-20T09:56:49;5.80;99.90
26589;DHT22;14235;48.532;8.722;2022-11-20T10:00:00;5.50;99.90
26589;DHT22;14235;48.532;8.722;2022-11-20T10:07:41;5.80;99.90
26589;DHT22;14235;48.532;8.722;2022-11-20T10:10:16;5.90;99.90
26589;DHT22;14235;48.532;8.722;2022-11-20T10:13:14;5.90;99.90
26589;DHT22;14235;48.532;8.722;2022-11-20T10:24:20;6.00;99.90
26589;DHT22;14235;48.532;8.722;2022-11-20T10:29:47;6.20;99.90
26589;DHT22;14235;48.532;8.722;2022-11-20T10:32:20;6.10;99.90
26589;DHT22;14235;48.532;8.722;2022-11-20T10:34:54;6.10;99.90
26589;DHT22;14235;48.532;8.722;2022-11-20T10:37:24;6.30;99.90
26589;DHT22;14235;48.532;8.722;2022-11-20T10:39:58;7.20;99.90
26589;DHT22;14235;48.532;8.722;2022-11-20T10:42:37;6.40;99.90
26589;DHT22;14235;48.532;8.722;2022-11-20T10:47:54;6.50;99.90
26589;DHT22;14235;48.532;8.722;2022-11-20T10:50:22;6.50;99.90
26589;DHT22;14235;48.532;8.722;2022-11-20T10:53:04;6.60;99.90
26589;DHT22;14235;48.532;8.722;2022-11-20T10:56:05;6.60;99.90
26589;DHT22;14235;48.532;8.722;2022-11-20T10:59:05;6.70;99.90
26589;DHT22;14235;48.532;8.722;2022-11-20T11:01:40;7.40;99.90
26589;DHT22;14235;48.532;8.722;2022-11-20T11:07:10;6.70;99.90
26589;DHT22;14235;48.532;8.722;2022-11-20T11:09:43;6.90;99.90
26589;DHT22;14235;48.532;8.722;2022-11-20T11:12:09;6.80;99.90
26589;DHT22;14235;48.532;8.722;2022-11-20T11:14:43;6.80;99.90
26589;DHT22;14235;48.532;8.722;2022-11-20T11:17:27;6.90;99.90
26589;DHT22;14235;48.532;8.722;2022-11-20T11:22:33;8.40;99.90
26589;DHT22;14235;48.532;8.722;2022-11-20T11:24:59;7.10;99.90
26589;DHT22;14235;48.532;8.722;2022-11-20T11:27:25;7.00;99.90
26589;DHT22;14235;48.532;8.722;2022-11-20T11:30:02;7.10;99.90
26589;DHT22;14235;48.532;8.722;2022-11-20T11:32:29;7.10;99.90
26589;DHT22;14235;48.532;8.722;2022-11-20T11:35:01;7.70;99.90
26589;DHT22;14235;48.532;8.722;2022-11-20T11:37:36;7.70;99.90
26589;DHT22;14235;48.532;8.722;2022-11-20T11:40:04;7.50;99.90
26589;DHT22;14235;48.532;8.722;2022-11-20T11:42:30;7.50;99.90
26589;DHT22;14235;48.532;8.722;2022-11-20T11:44:58;7.60;99.90
26589;DHT22;14235;48.532;8.722;2022-11-20T11:55:04;7.50;99.90
26589;DHT22;14235;48.532;8.722;2022-11-20T12:00:27;7.90;99.90
26589;DHT22;14235;48.532;8.722;2022-11-20T12:05:42;8.10;99.90
26589;DHT22;14235;48.532;8.722;2022-11-20T12:08:23;8.10;99.90
26589;DHT22;14235;48.532;8.722;2022-11-20T12:13:58;8.40;99.90
26589;DHT22;14235;48.532;8.722;2022-11-20T12:16:27;8.10;99.90
26589;DHT22;14235;48.532;8.722;2022-11-20T12:18:53;8.40;99.90
26589;DHT22;14235;48.532;8.722;2022-11-20T12:46:04;8.10;99.90
26589;DHT22;14235;48.532;8.722;2022-11-20T12:51:30;8.20;99.90
26589;DHT22;14235;48.532;8.722;2022-11-20T12:56:42;7.90;99.90
26589;DHT22;14235;48.532;8.722;2022-11-20T13:02:09;7.80;99.90
26589;DHT22;14235;48.532;8.722;2022-11-20T13:07:21;7.70;99.90
26589;DHT22;14235;48.532;8.722;2022-11-20T13:09:50;7.50;99.90
26589;DHT22;14235;48.532;8.722;2022-11-20T13:17:54;7.50;99.90
26589;DHT22;14235;48.532;8.722;2022-11-20T13:20:21;7.50;99.90
26589;DHT22;14235;48.532;8.722;2022-11-20T13:22:52;7.90;99.90
26589;DHT22;14235;48.532;8.722;2022-11-20T13:25:28;7.50;99.90
26589;DHT22;14235;48.532;8.722;2022-11-20T13:27:56;8.10;99.90
26589;DHT22;14235;48.532;8.722;2022-11-20T13:30:24;7.50;99.90
26589;DHT22;14235;48.532;8.722;2022-11-20T13:38:15;7.70;99.90
26589;DHT22;14235;48.532;8.722;2022-11-20T13:43:23;7.70;99.90
26589;DHT22;14235;48.532;8.722;2022-11-20T13:46:03;7.50;99.90
26589;DHT22;14235;48.532;8.722;2022-11-20T13:48:49;7.60;99.90
26589;DHT22;14235;48.532;8.722;2022-11-20T13:54:18;8.30;99.90
26589;DHT22;14235;48.532;8.722;2022-11-20T14:02:15;7.00;99.90
26589;DHT22;14235;48.532;8.722;2022-11-20T14:04:53;7.60;99.90
26589;DHT22;14235;48.532;8.722;2022-11-20T14:07:21;6.90;99.90
26589;DHT22;14235;48.532;8.722;2022-11-20T14:09:54;6.90;99.90
26589;DHT22;14235;48.532;8.722;2022-11-20T14:12:23;7.30;99.90
26589;DHT22;14235;48.532;8.722;2022-11-20T14:14:51;6.90;99.90
26589;DHT22;14235;48.532;8.722;2022-11-20T14:17:24;6.90;99.90
26589;DHT22;14235;48.532;8.722;2022-11-20T14:19:51;6.90;99.90
26589;DHT22;14235;48.532;8.722;2022-11-20T14:22:23;6.80;99.90
26589;DHT22;14235;48.532;8.722;2022-11-20T14:25:18;6.90;99.90
26589;DHT22;14235;48.532;8.722;2022-11-20T14:27:53;6.90;99.90
26589;DHT22;14235;48.532;8.722;2022-11-20T14:30:22;6.90;99.90
26589;DHT22;14235;48.532;8.722;2022-11-20T14:32:48;6.70;99.90
26589;DHT22;14235;48.532;8.722;2022-11-20T14:35:40;7.80;99.90
26589;DHT22;14235;48.532;8.722;2022-11-20T14:38:12;7.20;99.90
26589;DHT22;14235;48.532;8.722;2022-11-20T14:40:39;7.10;99.90
26589;DHT22;14235;48.532;8.722;2022-11-20T14:43:25;6.90;99.90
26589;DHT22;14235;48.532;8.722;2022-11-20T14:45:55;6.90;99.90
26589;DHT22;14235;48.532;8.722;2022-11-20T14:50:54;6.90;99.90
26589;DHT22;14235;48.532;8.722;2022-11-20T14:53:24;6.90;99.90
26589;DHT22;14235;48.532;8.722;2022-11-20T14:56:01;7.90;99.90
26589;DHT22;14235;48.532;8.722;2022-11-20T14:58:29;6.80;99.90
26589;DHT22;14235;48.532;8.722;2022-11-20T15:00:56;6.80;99.90
26589;DHT22;14235;48.532;8.722;2022-11-20T15:03:22;6.70;99.90
26589;DHT22;14235;48.532;8.722;2022-11-20T15:05:49;6.60;99.90
26589;DHT22;14235;48.532;8.722;2022-11-20T15:08:16;6.80;99.90
26589;DHT22;14235;48.532;8.722;2022-11-20T15:10:46;6.60;99.90
26589;DHT22;14235;48.532;8.722;2022-11-20T15:13:18;6.60;99.90
26589;DHT22;14235;48.532;8.722;2022-11-20T15:15:55;6.50;99.90
26589;DHT22;14235;48.532;8.722;2022-11-20T15:18:23;6.60;99.90
26589;DHT22;14235;48.532;8.722;2022-11-20T15:20:50;6.60;99.90
26589;DHT22;14235;48.532;8.722;2022-11-20T15:23:18;6.40;99.90
26589;DHT22;14235;48.532;8.722;2022-11-20T15:25:45;6.70;99.90
26589;DHT22;14235;48.532;8.722;2022-11-20T15:28:28;6.40;99.90
26589;DHT22;14235;48.532;8.722;2022-11-20T15:30:55;6.50;99.90
26589;DHT22;14235;48.532;8.722;2022-11-20T15:33:22;6.40;99.90
26589;DHT22;14235;48.532;8.722;2022-11-20T15:35:47;6.20;99.90
26589;DHT22;14235;48.532;8.722;2022-11-20T15:38:13;6.30;99.90
26589;DHT22;14235;48.532;8.722;2022-11-20T15:40:39;6.30;99.90
26589;DHT22;14235;48.532;8.722;2022-11-20T15:43:04;6.50;99.90
26589;DHT22;14235;48.532;8.722;2022-11-20T15:48:03;6.40;99.90
26589;DHT22;14235;48.532;8.722;2022-11-20T15:51:02;6.40;99.90
26589;DHT22;14235;48.532;8.722;2022-11-20T15:53:29;6.40;99.90
26589;DHT22;14235;48.532;8.722;2022-11-20T15:55:55;6.30;99.90
26589;DHT22;14235;48.532;8.722;2022-11-20T15:58:20;6.40;99.90
26589;DHT22;14235;48.532;8.722;2022-11-20T16:00:48;6.20;99.90
26589;DHT22;14235;48.532;8.722;2022-11-20T16:03:14;6.20;99.90
26589;DHT22;14235;48.532;8.722;2022-11-20T16:05:40;6.50;99.90
26589;DHT22;14235;48.532;8.722;2022-11-20T16:08:06;6.40;99.90
26589;DHT22;14235;48.532;8.722;2022-11-20T16:10:32;7.30;99.90
26589;DHT22;14235;48.532;8.722;2022-11-20T16:12:58;6.20;99.90
26589;DHT22;14235;48.532;8.722;2022-11-20T16:15:50;6.30;99.90
26589;DHT22;14235;48.532;8.722;2022-11-20T16:18:18;6.30;99.90
26589;DHT22;14235;48.532;8.722;2022-11-20T16:20:46;6.20;99.90
26589;DHT22;14235;48.532;8.722;2022-11-20T16:23:12;7.40;99.90
26589;DHT22;14235;48.532;8.722;2022-11-20T16:25:38;6.20;99.90
26589;DHT22;14235;48.532;8.722;2022-11-20T16:28:04;6.10;99.90
26589;DHT22;14235;48.532;8.722;2022-11-20T16:30:31;6.20;99.90
26589;DHT22;14235;48.532;8.722;2022-11-20T16:32:58;6.10;99.90
26589;DHT22;14235;48.532;8.722;2022-11-20T16:35:29;6.40;99.90
26589;DHT22;14235;48.532;8.722;2022-11-20T16:37:55;6.30;99.90
26589;DHT22;14235;48.532;8.722;2022-11-20T16:40:21;6.20;99.90
26589;DHT22;14235;48.532;8.722;2022-11-20T16:42:47;6.20;99.90
26589;DHT22;14235;48.532;8.722;2022-11-20T16:45:13;6.40;99.90
26589;DHT22;14235;48.532;8.722;2022-11-20T16:47:39;6.30;99.90
26589;DHT22;14235;48.532;8.722;2022-11-20T16:50:05;6.30;99.90
26589;DHT22;14235;48.532;8.722;2022-11-20T16:52:31;6.30;99.90
26589;DHT22;14235;48.532;8.722;2022-11-20T16:54:57;6.20;99.90
26589;DHT22;14235;48.532;8.722;2022-11-20T16:57:23;6.20;99.90
26589;DHT22;14235;48.532;8.722;2022-11-20T16:59:49;7.00;99.90
26589;DHT22;14235;48.532;8.722;2022-11-20T17:02:15;6.90;99.90
26589;DHT22;14235;48.532;8.722;2022-11-20T17:04:40;6.10;99.90
26589;DHT22;14235;48.532;8.722;2022-11-20T17:07:06;6.20;99.90
26589;DHT22;14235;48.532;8.722;2022-11-20T17:09:33;6.30;99.90
26589;DHT22;14235;48.532;8.722;2022-11-20T17:11:58;6.20;99.90
26589;DHT22;14235;48.532;8.722;2022-11-20T17:14:24;6.30;99.90
26589;DHT22;14235;48.532;8.722;2022-11-20T17:16:50;7.10;99.90
26589;DHT22;14235;48.532;8.722;2022-11-20T17:19:16;6.10;99.90
26589;DHT22;14235;48.532;8.722;2022-11-20T17:21:41;6.20;99.90
26589;DHT22;14235;48.532;8.722;2022-11-20T17:24:09;6.20;99.90
26589;DHT22;14235;48.532;8.722;2022-11-20T17:26:36;6.10;99.90
26589;DHT22;14235;48.532;8.722;2022-11-20T17:29:05;5.90;99.90
26589;DHT22;14235;48.532;8.722;2022-11-20T17:31:32;7.30;99.90
26589;DHT22;14235;48.532;8.722;2022-11-20T17:33:59;6.00;99.90
26589;DHT22;14235;48.532;8.722;2022-11-20T17:36:26;6.20;99.90
26589;DHT22;14235;48.532;8.722;2022-11-20T17:38:52;6.40;99.90
26589;DHT22;14235;48.532;8.722;2022-11-20T17:41:20;6.10;99.90
26589;DHT22;14235;48.532;8.722;2022-11-20T17:43:47;6.20;99.90
26589;DHT22;14235;48.532;8.722;2022-11-20T17:46:13;5.90;99.90
26589;DHT22;14235;48.532;8.722;2022-11-20T17:48:40;6.00;99.90
26589;DHT22;14235;48.532;8.722;2022-11-20T17:51:14;7.20;99.90
26589;DHT22;14235;48.532;8.722;2022-11-20T17:53:42;5.90;99.90
26589;DHT22;14235;48.532;8.722;2022-11-20T17:56:09;5.90;99.90
26589;DHT22;14235;48.532;8.722;2022-11-20T17:58:53;7.10;99.90
26589;DHT22;14235;48.532;8.722;2022-11-20T18:01:20;5.90;99.90
26589;DHT22;14235;48.532;8.722;2022-11-20T18:03:46;6.80;99.90
26589;DHT22;14235;48.532;8.722;2022-11-20T18:06:17;7.50;99.90
26589;DHT22;14235;48.532;8.722;2022-11-20T18:08:44;5.90;99.90
26589;DHT22;14235;48.532;8.722;2022-11-20T18:13:35;5.90;99.90
26589;DHT22;14235;48.532;8.722;2022-11-20T18:16:20;5.90;99.90
26589;DHT22;14235;48.532;8.722;2022-11-20T18:18:45;5.90;99.90
26589;DHT22;14235;48.532;8.722;2022-11-20T18:21:11;6.00;99.90
26589;DHT22;14235;48.532;8.722;2022-11-20T18:23:36;5.90;99.90
26589;DHT22;14235;48.532;8.722;2022-11-20T18:26:02;5.90;99.90
26589;DHT22;14235;48.532;8.722;2022-11-20T18:28:27;6.00;99.90
26589;DHT22;14235;48.532;8.722;2022-11-20T18:30:53;6.10;99.90
26589;DHT22;14235;48.532;8.722;2022-11-20T18:33:19;6.30;99.90
26589;DHT22;14235;48.532;8.722;2022-11-20T18:35:44;6.10;99.90
26589;DHT22;14235;48.532;8.722;2022-11-20T18:38:10;6.10;99.90
26589;DHT22;14235;48.532;8.722;2022-11-20T18:40:35;5.80;99.90